Exeter, CA

6:34 AM PDT on April 01, 2015 (GMT -0700)
HWY198 | | Change Station
CLOSE
Current Station
Personal Weather Station
Location: Farmersville, CA
Elevation: 377 ft
Nearby Weather Stations

Elev 377 ft 36.32 °N, 119.21 °W | Updated 60 seconds ago

Clear
Clear
45.0 °F
Feels Like 45 °F
N
0.0
Wind Variable Wind from WNW
Gusts 0.0 mph

Today
High -- | Low -- °F
--% Chance of Precip.
Yesterday
High -- | Low -- °F
Precip. -- in
6:42 AM 7:18 PM
Waxing Gibbous, 92% visible
Pressure 30.09 in
Visibility 10.0 miles
Clouds Clear
Windchill 45 °F
Dew Point 40 °F
Humidity 83%
Rainfall 0.00 in
Snow Depth Not available.
UV 0 out of 12
Pollen 10.70 out of 12
Air Quality Not available.
Flu Activity Not available.
METAR KVIS 011315Z AUTO 32007KT 10SM CLR 09/M01 A3009 RMK AO1

More Conditions Fewer Conditions

Pressure 30.09 in
Visibility 10.0 miles
Clouds Clear
Windchill 45 °F
Dew Point 40 °F
Humidity 83%
Rainfall 0.00 in
Snow Depth Not available.
UV 0 out of 12
Pollen 10.70 out of 12
Air Quality Not available.
Flu Activity Not available.
METAR KVIS 011315Z AUTO 32007KT 10SM CLR 09/M01 A3009 RMK AO1

More Conditions Fewer Conditions

10-Day Weather Forecast

Almanac

Astronomy

Apr. 01, 2015 Rise Set
Actual Time
Civil Twilight
Nautical Twilight
Astronomical Twilight
Moon
Length of Visible Light
Length of Day
Tomorrow will be .
, % of the Moon is Illuminated

Today's Extremes

State Highs State Lows

Community

WunderPhotos

Upload Photos

1,809,954 photos uploaded!

WunderBlogs® & News

Nearby

Air Quality

  Air Quality AQ Index Pollutant
Not available.

Snow Depth

Station Depth Elevation

Earthquake Activity

City Distance Mag. Time & Date
Minimum magnitude displayed is 2.5.

Coastal Water Temperatures

Place Temperature

Stations

Nearby Weather Stations

Station Location Temp. Windchill Dew Point Humidity Wind Precip. Elev Updated Type